Drummond Island, MI

7:09 PM EDT on October 31, 2014 (GMT -0400)
Drummond Island | Change Station
CLOSE
Current Station
Airport
Location: Drummond Island,
Elevation: 669 ft
Nearby Weather Stations

Elev 669 ft 46.01 °N, 83.74 °W | Updated 14 minutes ago

Overcast
Overcast
31 °F
Feels Like 22 °F
N
10
Wind Variable Wind from NNE
Gusts 20 mph

Today
High -- | Low -- °F
--% Chance of Precip.
Yesterday
High -- | Low -- °F
Precip. -- in
8:13 AM 6:22 PM
First Quarter, 60% visible
Pressure 30.30 in
Visibility 10.0 miles
Clouds Mostly Cloudy 3500 ft
Overcast 4100 ft
Windchill 22 °F
Dew Point 21 °F
Humidity 67%
Rainfall 0.00 in
Snow Depth Not available.
UV 0 out of 12
Pollen .10 out of 12
Air Quality Not available.
Flu Activity Not available.
METAR KDRM 312255Z AUTO 02009G17KT 10SM BKN035 OVC041 M01/M06 A3030 RMK AO2 T10081062

More Conditions Fewer Conditions

Pressure 30.30 in
Visibility 10.0 miles
Clouds Mostly Cloudy 3500 ft
Overcast 4100 ft
Windchill 22 °F
Dew Point 21 °F
Humidity 67%
Rainfall 0.00 in
Snow Depth Not available.
UV 0 out of 12
Pollen .10 out of 12
Air Quality Not available.
Flu Activity Not available.
METAR KDRM 312255Z AUTO 02009G17KT 10SM BKN035 OVC041 M01/M06 A3030 RMK AO2 T10081062

More Conditions Fewer Conditions

Nowcast | as of 7:00 PM EDT on October 31, 2014

At 8 PM...mostly clear. Temperature 29. North winds 11 mph with gusts to 25 mph. At 10 PM...mostly clear. Temperature 27. North winds 9 mph with gusts to 20 mph. At 12 am...mostly clear. Temperature 25. North winds 9 mph with gusts to 20 mph. At 2 am...mostly clear. Temperature 24. North winds 8 mph.

×

10-Day Weather Forecast

Almanac

Astronomy

Oct. 31, 2014 Rise Set
Actual Time
Civil Twilight
Nautical Twilight
Astronomical Twilight
Moon
Length of Visible Light
Length of Day
Tomorrow will be .
, % of the Moon is Illuminated

Today's Extremes

State Highs State Lows

Community

WunderPhotos

Upload Photos

1,766,774 photos uploaded!

WunderBlogs® & News

Nearby

Air Quality

  Air Quality AQ Index Pollutant
Not available.

Snow Depth

Station Depth Elevation

Earthquake Activity

City Distance Mag. Time & Date
Minimum magnitude displayed is 2.5.

Coastal Water Temperatures

Place Temperature

Nearby Weather Stations